createdAt,value
2023-04-19T00:34:47.710Z,2.83
2023-04-19T00:37:16.389Z,2.85
2023-04-19T00:39:44.694Z,2.85
2023-04-19T00:42:12.949Z,2.84
2023-04-19T00:44:42.672Z,2.85
2023-04-19T00:47:11.259Z,2.85
2023-04-19T00:49:39.617Z,2.88
2023-04-19T00:52:08.626Z,2.90
2023-04-19T00:54:37.834Z,2.92
2023-04-19T00:57:06.115Z,2.95
2023-04-19T00:59:35.908Z,2.97
2023-04-19T01:02:04.541Z,2.97
2023-04-19T01:04:38.916Z,2.95
2023-04-19T01:07:16.391Z,2.94
2023-04-19T01:09:46.063Z,2.94
2023-04-19T01:12:14.494Z,2.96
2023-04-19T01:14:42.812Z,2.96
2023-04-19T01:17:11.573Z,2.97
2023-04-19T01:19:39.932Z,2.98
2023-04-19T01:22:09.610Z,2.99
2023-04-19T01:24:37.817Z,2.99
2023-04-19T01:27:06.168Z,2.99
2023-04-19T01:29:34.516Z,2.98
2023-04-19T01:32:02.793Z,2.97
2023-04-19T01:34:31.071Z,2.96
2023-04-19T01:36:59.316Z,2.96
2023-04-19T01:39:27.785Z,2.96
2023-04-19T01:41:56.177Z,2.97
2023-04-19T01:44:24.457Z,2.99
2023-04-19T01:46:52.786Z,3.00
2023-04-19T01:49:21.139Z,3.01
2023-04-19T01:51:49.982Z,3.02
2023-04-19T01:54:18.383Z,3.03
2023-04-19T01:56:46.776Z,3.03
2023-04-19T01:59:15.153Z,3.04
2023-04-19T02:01:43.597Z,3.07
2023-04-19T02:04:11.966Z,3.08
2023-04-19T02:06:40.460Z,3.08
2023-04-19T02:09:08.751Z,3.09
2023-04-19T02:11:37.105Z,3.09
2023-04-19T02:14:05.331Z,3.06
2023-04-19T02:16:35.631Z,3.02
2023-04-19T02:19:04.850Z,2.98
2023-04-19T02:21:33.168Z,2.96
2023-04-19T02:24:01.681Z,2.94
2023-04-19T02:26:30.054Z,2.93
2023-04-19T02:28:58.384Z,2.93
2023-04-19T02:31:26.665Z,2.94
2023-04-19T02:33:55.038Z,2.93
2023-04-19T02:36:23.413Z,2.93
2023-04-19T02:38:51.712Z,2.93
2023-04-19T02:41:20.264Z,2.94
2023-04-19T02:43:48.499Z,2.90
2023-04-19T02:46:16.835Z,2.87
2023-04-19T02:48:45.685Z,2.84
2023-04-19T02:51:17.789Z,2.82
2023-04-19T02:53:46.147Z,2.83
2023-04-19T02:56:14.413Z,2.83
2023-04-19T02:58:42.656Z,2.84
2023-04-19T03:01:11.183Z,2.84
2023-04-19T03:03:39.590Z,2.84
2023-04-19T03:06:08.533Z,2.83
2023-04-19T03:08:36.911Z,2.82
2023-04-19T03:11:05.848Z,2.81
2023-04-19T03:13:34.068Z,2.78
2023-04-19T03:16:02.458Z,2.75
2023-04-19T03:18:30.857Z,2.74
2023-04-19T03:20:59.070Z,2.73
2023-04-19T03:23:27.716Z,2.73
2023-04-19T03:25:57.184Z,2.71
2023-04-19T03:28:25.637Z,2.71
2023-04-19T03:30:53.908Z,2.71
2023-04-19T03:33:22.266Z,2.71
2023-04-19T03:35:50.467Z,2.70
2023-04-19T03:38:18.752Z,2.71
2023-04-19T03:40:48.100Z,2.72
2023-04-19T03:43:16.378Z,2.72
2023-04-19T03:45:44.660Z,2.74
2023-04-19T03:48:12.911Z,2.74
2023-04-19T03:50:41.112Z,2.75
2023-04-19T03:53:09.383Z,2.76
2023-04-19T03:55:37.647Z,2.77
2023-04-19T03:58:05.874Z,2.77
2023-04-19T04:00:35.961Z,2.79
2023-04-19T04:03:04.292Z,2.81
2023-04-19T04:05:32.683Z,2.82
2023-04-19T04:08:01.141Z,2.85
2023-04-19T04:10:29.436Z,2.88
2023-04-19T04:12:57.744Z,2.91
2023-04-19T04:15:26.114Z,2.95
2023-04-19T04:17:54.449Z,2.97
2023-04-19T04:20:22.933Z,2.99
2023-04-19T04:22:51.606Z,3.00
2023-04-19T04:25:22.789Z,3.03
2023-04-19T04:27:52.575Z,3.08
2023-04-19T04:30:23.909Z,3.14
2023-04-19T04:32:53.224Z,3.23
2023-04-19T04:35:21.669Z,3.33
2023-04-19T04:37:50.263Z,3.45
2023-04-19T04:40:18.767Z,3.57
2023-04-19T04:42:54.319Z,3.70
2023-04-19T04:45:22.729Z,3.82
2023-04-19T04:47:51.780Z,3.92
2023-04-19T04:50:20.309Z,4.00
2023-04-19T04:52:48.576Z,4.05
2023-04-19T04:55:18.115Z,4.08
2023-04-19T04:57:46.500Z,4.10
2023-04-19T05:00:14.994Z,4.12
2023-04-19T05:02:43.412Z,4.12
2023-04-19T05:05:11.896Z,4.11
2023-04-19T05:07:40.514Z,4.17
2023-04-19T05:10:09.916Z,4.28
2023-04-19T05:12:38.453Z,4.37
2023-04-19T05:15:07.562Z,4.43
2023-04-19T05:17:36.052Z,4.48
2023-04-19T05:20:06.076Z,4.50
2023-04-19T05:22:34.236Z,4.51
2023-04-19T05:25:02.551Z,4.49
2023-04-19T05:27:30.850Z,4.48
2023-04-19T05:29:59.069Z,4.46
2023-04-19T05:32:28.309Z,4.47
2023-04-19T05:34:57.656Z,4.50
2023-04-19T05:37:26.133Z,4.53
2023-04-19T05:39:54.420Z,4.56
2023-04-19T05:42:22.669Z,4.59
2023-04-19T05:44:50.973Z,4.63
2023-04-19T05:47:19.345Z,4.66
2023-04-19T05:49:47.590Z,4.73
2023-04-19T05:52:15.995Z,4.85
2023-04-19T05:54:44.677Z,4.99
2023-04-19T05:57:13.372Z,5.12
2023-04-19T05:59:42.429Z,5.22
2023-04-19T06:02:11.206Z,5.29
2023-04-19T06:04:40.563Z,5.30
2023-04-19T06:07:17.876Z,5.29
2023-04-19T06:09:55.517Z,5.30
2023-04-19T06:12:23.699Z,5.32
2023-04-19T06:14:52.518Z,5.34
2023-04-19T06:17:25.531Z,5.36
2023-04-19T06:19:55.158Z,5.39
2023-04-19T06:22:23.558Z,5.42
2023-04-19T06:24:51.785Z,5.44
2023-04-19T06:27:20.053Z,5.47
2023-04-19T06:29:50.545Z,5.50
2023-04-19T06:32:19.602Z,5.56
2023-04-19T06:34:47.822Z,5.66
2023-04-19T06:37:16.105Z,5.79
2023-04-19T06:39:44.457Z,5.92
2023-04-19T06:42:12.640Z,5.99
2023-04-19T06:44:40.990Z,6.03
2023-04-19T06:47:09.210Z,6.08
2023-04-19T06:49:37.486Z,6.11
2023-04-19T06:52:05.765Z,6.15
2023-04-19T06:54:34.008Z,6.20
2023-04-19T06:57:03.206Z,6.26
2023-04-19T06:59:32.562Z,6.36
2023-04-19T07:02:00.850Z,6.47
2023-04-19T07:04:29.359Z,6.59
2023-04-19T07:06:57.850Z,6.74
2023-04-19T07:09:26.765Z,6.86
2023-04-19T07:11:55.201Z,6.92
2023-04-19T07:14:24.207Z,6.97
2023-04-19T07:16:53.910Z,7.03
2023-04-19T07:19:22.999Z,7.03
2023-04-19T07:21:52.104Z,7.04
2023-04-19T07:24:20.386Z,7.07
2023-04-19T07:26:48.605Z,7.18
2023-04-19T07:29:16.963Z,7.27
2023-04-19T07:31:45.556Z,7.33
2023-04-19T07:34:14.126Z,7.37
2023-04-19T07:36:42.539Z,7.44
2023-04-19T07:39:11.364Z,7.51
2023-04-19T07:41:39.667Z,7.58
2023-04-19T07:44:08.049Z,7.64
2023-04-19T07:46:36.343Z,7.69
2023-04-19T07:49:04.588Z,7.75
2023-04-19T07:51:32.948Z,7.85
2023-04-19T07:54:01.231Z,7.97
2023-04-19T07:56:29.711Z,8.09
2023-04-19T07:59:07.396Z,8.23
2023-04-19T08:01:37.526Z,8.34
2023-04-19T08:04:06.565Z,8.44
2023-04-19T08:06:35.014Z,8.49
2023-04-19T08:09:03.342Z,8.56
2023-04-19T08:11:31.834Z,8.61
2023-04-19T08:14:09.239Z,8.68
2023-04-19T08:17:19.043Z,8.76
2023-04-19T08:19:31.772Z,8.84
2023-04-19T08:22:00.069Z,8.91
2023-04-19T08:24:28.376Z,8.97
2023-04-19T08:26:58.770Z,8.99
2023-04-19T08:29:30.104Z,9.03
2023-04-19T08:31:58.296Z,9.06
2023-04-19T08:34:26.547Z,9.09
2023-04-19T08:37:03.579Z,9.15
2023-04-19T08:39:34.280Z,9.21
2023-04-19T08:42:13.410Z,9.26
2023-04-19T08:45:23.481Z,9.33
2023-04-19T08:47:59.510Z,9.40
2023-04-19T08:50:36.100Z,9.47
2023-04-19T08:56:03.350Z,9.57
2023-04-19T08:58:52.115Z,9.64
2023-04-19T09:01:34.609Z,9.69
2023-04-19T09:04:26.529Z,9.72
2023-04-19T09:06:56.333Z,9.76
2023-04-19T09:11:58.594Z,9.84
2023-04-19T09:14:28.511Z,9.88
2023-04-19T09:17:16.806Z,9.92
2023-04-19T09:19:50.429Z,9.91
2023-04-19T09:22:19.244Z,9.91
2023-04-19T09:27:37.590Z,9.89
2023-04-19T09:30:10.812Z,9.90
2023-04-19T09:32:48.422Z,9.90
2023-04-19T09:35:17.354Z,9.86
2023-04-19T09:38:05.335Z,9.80
2023-04-19T09:40:35.012Z,9.73
2023-04-19T09:43:25.758Z,9.74
2023-04-19T09:45:52.768Z,9.78
2023-04-19T09:48:23.779Z,9.77
2023-04-19T09:51:01.939Z,9.79
2023-04-19T09:53:36.931Z,9.77
2023-04-19T09:56:06.415Z,9.76
2023-04-19T09:58:46.927Z,9.77
2023-04-19T10:01:20.562Z,9.75
2023-04-19T10:03:50.990Z,9.73
2023-04-19T10:08:55.035Z,9.79
2023-04-19T10:11:27.531Z,9.86
2023-04-19T10:14:00.015Z,9.92
2023-04-19T10:16:30.853Z,9.94
2023-04-19T10:19:01.403Z,9.89
2023-04-19T10:21:31.214Z,9.88
2023-04-19T10:23:59.883Z,9.86
2023-04-19T10:26:28.789Z,9.81
2023-04-19T10:28:57.573Z,9.84
2023-04-19T10:31:27.066Z,9.88
2023-04-19T10:33:55.511Z,9.90
2023-04-19T10:36:28.977Z,9.94
2023-04-19T10:38:57.372Z,10.00
2023-04-19T10:41:57.558Z,10.07
2023-04-19T10:44:26.066Z,10.13
2023-04-19T10:46:54.930Z,10.15
2023-04-19T10:49:23.941Z,10.15
2023-04-19T10:51:55.113Z,10.21
2023-04-19T10:54:37.732Z,10.21
2023-04-19T10:57:08.060Z,10.17
2023-04-19T10:59:38.301Z,10.12
2023-04-19T11:02:25.301Z,10.14
2023-04-19T11:04:53.795Z,10.15
2023-04-19T11:07:22.542Z,10.17
2023-04-19T11:09:52.706Z,10.24
2023-04-19T11:12:21.888Z,10.31
2023-04-19T11:14:57.719Z,10.33
2023-04-19T11:17:29.105Z,10.34
2023-04-19T11:20:02.198Z,10.28
2023-04-19T11:22:31.995Z,10.20
2023-04-19T11:25:07.172Z,10.23
2023-04-19T11:27:36.047Z,10.23
2023-04-19T11:30:07.693Z,10.25
2023-04-19T11:32:36.910Z,10.25
2023-04-19T11:35:08.312Z,10.29
2023-04-19T11:37:39.548Z,10.35
2023-04-19T11:40:11.856Z,10.41
2023-04-19T11:42:40.141Z,10.45
2023-04-19T11:45:18.632Z,10.48
2023-04-19T11:47:55.192Z,10.55
2023-04-19T11:50:34.311Z,10.54
2023-04-19T11:53:11.348Z,10.51
2023-04-19T11:55:42.229Z,10.45
2023-04-19T11:58:26.549Z,10.40
2023-04-19T12:00:56.028Z,10.33
2023-04-19T12:03:26.493Z,10.27
2023-04-19T12:06:00.574Z,10.23
2023-04-19T12:08:53.133Z,10.14
2023-04-19T12:11:26.912Z,10.06
2023-04-19T12:14:15.043Z,9.94
2023-04-19T12:16:45.246Z,9.76
2023-04-19T12:19:16.016Z,9.62
2023-04-19T12:21:45.971Z,9.49
2023-04-19T12:24:17.438Z,9.42
2023-04-19T12:26:57.144Z,9.35
2023-04-19T12:29:26.967Z,9.27
2023-04-19T12:31:55.414Z,9.20
2023-04-19T12:34:23.675Z,9.12
2023-04-19T12:36:51.898Z,9.06
2023-04-19T12:39:20.438Z,9.01
2023-04-19T12:41:49.228Z,8.94
2023-04-19T12:44:17.778Z,8.85
2023-04-19T12:46:46.371Z,8.74
2023-04-19T12:49:14.999Z,8.57
2023-04-19T12:51:43.422Z,8.42
2023-04-19T12:54:11.800Z,8.29
2023-04-19T12:56:40.649Z,8.18
2023-04-19T12:59:08.973Z,8.08
2023-04-19T13:01:37.290Z,7.98
2023-04-19T13:04:05.997Z,7.92
2023-04-19T13:06:34.468Z,7.86
2023-04-19T13:09:11.465Z,7.83
2023-04-19T13:11:42.496Z,7.80
2023-04-19T13:14:10.934Z,7.78
2023-04-19T13:16:39.207Z,7.75
2023-04-19T13:19:07.824Z,7.72
2023-04-19T13:21:36.151Z,7.67
2023-04-19T13:24:04.529Z,7.62
2023-04-19T13:26:34.434Z,7.56
2023-04-19T13:29:03.048Z,7.53
2023-04-19T13:31:31.369Z,7.46
2023-04-19T13:34:00.749Z,7.34
2023-04-19T13:36:29.122Z,7.28
2023-04-19T13:38:57.615Z,7.21
2023-04-19T13:41:26.046Z,7.12
2023-04-19T13:43:54.330Z,6.99
2023-04-19T13:46:22.780Z,6.89
2023-04-19T13:48:51.288Z,6.84
2023-04-19T13:51:19.725Z,6.80
2023-04-19T13:53:48.074Z,6.76
2023-04-19T13:56:16.400Z,6.68
2023-04-19T13:58:44.695Z,6.63
2023-04-19T14:01:12.952Z,6.61
2023-04-19T14:03:41.936Z,6.59
2023-04-19T14:06:10.267Z,6.60
2023-04-19T14:08:38.586Z,6.62
2023-04-19T14:11:06.944Z,6.63
2023-04-19T14:13:35.179Z,6.66
2023-04-19T14:16:04.199Z,6.67
2023-04-19T14:18:34.174Z,6.64
2023-04-19T14:21:02.508Z,6.61
2023-04-19T14:23:30.830Z,6.60
2023-04-19T14:25:59.165Z,6.59
2023-04-19T14:28:27.494Z,6.63
2023-04-19T14:30:55.914Z,6.64
2023-04-19T14:33:24.363Z,6.63
2023-04-19T14:35:52.696Z,6.61
2023-04-19T14:38:21.098Z,6.59
2023-04-19T14:40:49.369Z,6.59
2023-04-19T14:43:18.119Z,6.61
2023-04-19T14:45:49.972Z,6.62
2023-04-19T14:48:21.449Z,6.64
2023-04-19T14:50:50.501Z,6.67
2023-04-19T14:53:18.900Z,6.72
2023-04-19T14:55:47.190Z,6.73
2023-04-19T14:58:15.574Z,6.75
2023-04-19T15:00:44.601Z,6.77
2023-04-19T15:03:13.021Z,6.83
2023-04-19T15:05:41.592Z,6.85
2023-04-19T15:08:23.314Z,6.89
2023-04-19T15:10:55.445Z,6.97
2023-04-19T15:13:23.714Z,7.04
2023-04-19T15:15:52.005Z,7.07
2023-04-19T15:18:20.450Z,7.10
2023-04-19T15:20:48.756Z,7.14
2023-04-19T15:23:17.017Z,7.16
2023-04-19T15:25:45.374Z,7.15
2023-04-19T15:28:13.728Z,7.15
2023-04-19T15:30:42.052Z,7.13
2023-04-19T15:33:10.317Z,7.13
2023-04-19T15:35:38.594Z,7.11
2023-04-19T15:38:06.865Z,7.13
2023-04-19T15:40:38.653Z,7.17
2023-04-19T15:43:07.038Z,7.20
2023-04-19T15:45:35.449Z,7.21
2023-04-19T15:48:03.899Z,7.20
2023-04-19T15:50:32.741Z,7.24
2023-04-19T15:53:00.920Z,7.24
2023-04-19T15:55:29.355Z,7.28
2023-04-19T15:57:57.778Z,7.29
2023-04-19T16:00:26.816Z,7.35
2023-04-19T16:02:55.088Z,7.40
2023-04-19T16:05:23.694Z,7.48
2023-04-19T16:08:05.904Z,7.58
2023-04-19T16:10:34.648Z,7.64
2023-04-19T16:13:06.233Z,7.71
2023-04-19T16:15:34.610Z,7.79
2023-04-19T16:18:02.985Z,7.85
2023-04-19T16:20:31.344Z,7.93
2023-04-19T16:23:03.029Z,7.99
2023-04-19T16:25:31.862Z,8.04
2023-04-19T16:28:00.573Z,8.07
2023-04-19T16:30:28.907Z,8.09
2023-04-19T16:32:58.334Z,8.09
2023-04-19T16:35:27.353Z,8.10
2023-04-19T16:37:57.818Z,8.11
2023-04-19T16:40:26.338Z,8.15
2023-04-19T16:42:54.656Z,8.18
2023-04-19T16:45:22.957Z,8.20
2023-04-19T16:47:54.264Z,8.21
2023-04-19T16:50:22.620Z,8.22
2023-04-19T16:52:50.943Z,8.19
2023-04-19T16:55:19.194Z,8.18
2023-04-19T16:57:47.686Z,8.18
2023-04-19T17:00:16.395Z,8.20
2023-04-19T17:02:44.834Z,8.22
2023-04-19T17:05:14.501Z,8.23
2023-04-19T17:07:43.800Z,8.24
2023-04-19T17:10:13.172Z,8.25
2023-04-19T17:12:41.571Z,8.24
2023-04-19T17:15:10.209Z,8.24
2023-04-19T17:17:38.520Z,8.23
2023-04-19T17:20:07.480Z,8.22
2023-04-19T17:22:35.729Z,8.24
2023-04-19T17:25:04.347Z,8.26
2023-04-19T17:27:32.576Z,8.27
2023-04-19T17:30:00.871Z,8.26
2023-04-19T17:32:29.274Z,8.25
2023-04-19T17:34:57.475Z,8.24
2023-04-19T17:37:26.080Z,8.20
2023-04-19T17:39:54.516Z,8.15
2023-04-19T17:42:24.400Z,8.11
2023-04-19T17:44:52.768Z,8.11
2023-04-19T17:48:07.694Z,8.12
2023-04-19T17:50:39.933Z,8.13
2023-04-19T17:53:13.734Z,8.15
2023-04-19T17:55:42.377Z,8.12
2023-04-19T17:58:21.361Z,8.09
2023-04-19T18:01:07.352Z,8.07
2023-04-19T18:03:39.323Z,8.05
2023-04-19T18:06:11.499Z,8.05
2023-04-19T18:08:45.395Z,8.06
2023-04-19T18:11:15.476Z,8.08
2023-04-19T18:13:49.902Z,8.05
2023-04-19T18:16:22.887Z,7.99
2023-04-19T18:18:54.123Z,7.97
2023-04-19T18:21:22.705Z,7.92
2023-04-19T18:23:52.606Z,7.89
2023-04-19T18:26:23.902Z,7.87
2023-04-19T18:28:54.745Z,7.83
2023-04-19T18:31:24.020Z,7.82
2023-04-19T18:33:52.706Z,7.80
2023-04-19T18:36:21.718Z,7.77
2023-04-19T18:38:53.423Z,7.75
2023-04-19T18:41:31.750Z,7.72
2023-04-19T18:46:46.056Z,7.71
2023-04-19T18:49:14.978Z,7.72
2023-04-19T18:51:45.298Z,7.74
2023-04-19T18:54:16.456Z,7.73
2023-04-19T18:59:16.812Z,7.68
2023-04-19T19:01:46.007Z,7.65
2023-04-19T19:06:56.855Z,7.60
2023-04-19T19:09:27.769Z,7.58
2023-04-19T19:11:57.049Z,7.56
2023-04-19T19:14:33.144Z,7.55
2023-04-19T19:17:08.479Z,7.52
2023-04-19T19:19:36.885Z,7.48
2023-04-19T19:22:14.844Z,7.47
2023-04-19T19:24:51.720Z,7.43
2023-04-19T19:27:20.372Z,7.41
2023-04-19T19:29:48.851Z,7.40
2023-04-19T19:32:17.332Z,7.37
2023-04-19T19:37:19.708Z,7.34
2023-04-19T19:39:48.200Z,7.32
2023-04-19T19:42:17.897Z,7.28
2023-04-19T19:44:46.356Z,7.23
2023-04-19T19:47:16.883Z,7.14
2023-04-19T19:50:20.284Z,7.11
2023-04-19T19:52:34.522Z,7.12
2023-04-19T19:55:03.354Z,7.13
2023-04-19T20:00:24.517Z,7.16
2023-04-19T20:02:59.060Z,7.18
2023-04-19T20:05:40.706Z,7.20
2023-04-19T20:08:47.122Z,7.21
2023-04-19T20:11:22.218Z,7.24
2023-04-19T20:13:51.020Z,7.23
2023-04-19T20:16:20.008Z,7.21
2023-04-19T20:18:49.399Z,7.21
2023-04-19T20:21:18.143Z,7.19
2023-04-19T20:23:46.698Z,7.16
2023-04-19T20:26:18.701Z,7.14
2023-04-19T20:28:49.972Z,7.08
2023-04-19T20:31:18.399Z,7.04
2023-04-19T20:33:49.882Z,6.95
2023-04-19T20:36:18.913Z,6.89
2023-04-19T20:38:47.307Z,6.85
2023-04-19T20:41:16.630Z,6.79
2023-04-19T20:43:45.088Z,6.70
2023-04-19T20:46:15.556Z,6.65
2023-04-19T20:48:43.998Z,6.65
2023-04-19T20:51:12.881Z,6.64
2023-04-19T20:53:41.414Z,6.58
2023-04-19T20:56:09.827Z,6.57
2023-04-19T20:58:42.528Z,6.60
2023-04-19T21:01:12.000Z,6.61
2023-04-19T21:03:45.689Z,6.61
2023-04-19T21:06:14.169Z,6.59
2023-04-19T21:08:42.474Z,6.57
2023-04-19T21:11:11.154Z,6.53
2023-04-19T21:13:39.806Z,6.49
2023-04-19T21:16:08.439Z,6.48
2023-04-19T21:18:36.811Z,6.49
2023-04-19T21:21:05.114Z,6.52
2023-04-19T21:23:33.508Z,6.56
2023-04-19T21:26:05.078Z,6.57
2023-04-19T21:28:36.486Z,6.57
2023-04-19T21:31:05.149Z,6.56
2023-04-19T21:33:36.744Z,6.57
2023-04-19T21:36:05.590Z,6.55
2023-04-19T21:38:34.842Z,6.51
2023-04-19T21:41:03.216Z,6.40
2023-04-19T21:43:31.786Z,6.33
2023-04-19T21:46:01.998Z,6.30
2023-04-19T21:48:30.596Z,6.31
2023-04-19T21:51:00.306Z,6.33
2023-04-19T21:53:28.679Z,6.37
2023-04-19T21:55:57.038Z,6.39
2023-04-19T21:58:25.436Z,6.43
2023-04-19T22:00:53.958Z,6.47
2023-04-19T22:03:22.595Z,6.50
2023-04-19T22:05:51.142Z,6.52
2023-04-19T22:08:19.423Z,6.54
2023-04-19T22:10:50.838Z,6.53
2023-04-19T22:13:22.058Z,6.54
2023-04-19T22:15:51.604Z,6.54
2023-04-19T22:18:20.094Z,6.54
2023-04-19T22:20:50.096Z,6.54
2023-04-19T22:23:21.543Z,6.57
2023-04-19T22:25:50.685Z,6.53
2023-04-19T22:28:19.178Z,6.49
2023-04-19T22:30:47.460Z,6.45
2023-04-19T22:33:15.769Z,6.40
2023-04-19T22:35:44.166Z,6.35
2023-04-19T22:38:12.579Z,6.33
2023-04-19T22:40:41.797Z,6.33
2023-04-19T22:43:10.602Z,6.37
2023-04-19T22:45:39.326Z,6.36
2023-04-19T22:48:08.299Z,6.30
2023-04-19T22:50:36.820Z,6.26
2023-04-19T22:53:05.266Z,6.23
2023-04-19T22:55:35.433Z,6.22
2023-04-19T22:58:06.187Z,6.23
2023-04-19T23:00:36.591Z,6.23
2023-04-19T23:03:07.315Z,6.25
2023-04-19T23:05:37.942Z,6.22
2023-04-19T23:08:07.383Z,6.18
2023-04-19T23:10:38.354Z,6.13
2023-04-19T23:13:09.868Z,6.05
2023-04-19T23:15:39.518Z,6.00
2023-04-19T23:18:07.958Z,5.98
2023-04-19T23:20:36.711Z,5.96
2023-04-19T23:23:05.828Z,5.98
2023-04-19T23:25:34.263Z,6.06
2023-04-19T23:28:02.880Z,6.11
2023-04-19T23:30:32.203Z,6.09
2023-04-19T23:33:00.897Z,6.08
2023-04-19T23:35:29.282Z,6.03
2023-04-19T23:37:57.588Z,6.01
2023-04-19T23:40:26.235Z,6.02
2023-04-19T23:42:55.416Z,6.04
2023-04-19T23:45:23.793Z,6.08
2023-04-19T23:47:52.334Z,6.11
2023-04-19T23:50:21.426Z,6.16
2023-04-19T23:52:50.385Z,6.21
2023-04-19T23:55:18.839Z,6.27
2023-04-19T23:57:47.211Z,6.31
